Flight ASXVIP5

  • Submitted By: Krzysztof H. Blaszkow
  • Departure Airport: Dublin (EIDW)
  • Arrival Airport: Cork Airport (EICK)
  • Aircraft: BE58 (EJ-IAWH)
  • Flight Time: 01.12.43
  • Date Submitted: 03/31/2017
  • Route: ARRAY
  • Status: Accepted
Flight Details
Gross Revenue:
(5 load / € 450.00 per unit
€ 2,250.00
Fuel Cost:
(61.235 fuel used @ 0.45 / unit)
€ 27.56

Additional Log Information:

View Log

[20:14] - Carenado BARON B58 GOLD GREEN
[20:14] - Flight ASXVIP5 is ready to depart EIDW with a final destination of EICK.
[20:14] - Parking Brake Applied
[20:14] - Beacon Light ON
[20:14] - Instrument Lights ON
[20:14] - Wing Lights ON
[20:14] - Boarding
[20:14] - ADF1 - 284.0
[20:14] - ADF2 - 240.0
[20:14] - NAV1 - 111.35
[20:14] - NAV2 - 110.60
[20:14] - COM1 - 121.10
[20:14] - COM2 - 127.80
[20:14] - Transponder - 6611
[20:25] - Engine 1 Started
[20:25] - Engine 2 Started
[20:25] - Taxi Lights ON 3AGL
[20:27] - Parking Brake Released
[20:28] - Landing Lights ON 3AGL
[20:28] - Strobe Lights ON 3AGL
[20:28] - Taxi Lights OFF 3AGL
[20:32] - Flaps to position 1
[20:32] - Taxiing to Runway
[20:32] - Taking Off with 5 passengers on board
[20:32] - Take off at 92kts, with a pitch of 5deg and 227lbs of fuel on board
[20:32] - Wind Heading 169 | Wind Speed 11kts | Temperature 12 deg C
[20:33] - METAR Departure: EIDW 311900Z 19011KT 9999 FEW006 BKN150 11/05 Q1001 NOSIG

[20:33] - Flaps to position 0 at 384ft and 102kts
[20:33] - Gear up at 216AGL
[20:33] - Climbing to TOC
[20:33] - AutoPilot Engaged at 899AGL
[20:41] - Landing Lights OFF 7208AGL
[20:44] - TOC reached
[20:44] - Cruise started
[20:46] - NAV1 - 114.60
[21:08] - TOD reached
[21:08] - Descending to destination
[21:17] - Landing Shortly
[21:18] - Gear down at 2438AGL
[21:19] - AutoPilot Disengaged at 2395AGL
[21:19] - Flaps to position 1 at 2283ft and 104kts
[21:23] - Flaps to position 2 at 1686ft and 110kts
[21:24] - Landed at -168fpm. With 95lbs of fuel onboard and a pitch angle of 2deg.
[21:24] - Wind Heading 210 | Wind Speed 9kts | Temperature 11 deg C
[21:24] - METAR Arrival: EICK 312000Z 20007KT 9999 BKN010 SCT013 08/07 Q1000 NOSIG

[21:24] - Flaps to position 0
[21:24] - Taxiing to Gate
[21:25] - Strobe Lights OFF 0AGL
[21:25] - Landing Lights ON 0AGL
[21:25] - Landing Lights OFF 0AGL
[21:25] - Strobe Lights ON 0AGL
[21:26] - Parking Brake Applied
[21:26] - Arrived safely at EICK. We hope you enjoyed your flight!
[21:26] - Engine 1 Stopped
[21:26] - Engine 2 Stopped
[21:26] - Strobe Lights OFF 0AGL
[21:27] - Carenado BARON B58 GOLD GREEN
[21:27] - MaxSim Rate: 1x
[21:27] - SiouxAcars ver: 1.0.1.2

Route Map